Elroy, Wisconsin
Current Conditions -  °F | °C
As of 7:58 PM on Monday 20 Oct 2014 (Local Time) from KVOK Reporting Station
Broken Clouds Broken Clouds  
Wind Chill: 52°   Ceiling: 4800
Heat Index: 52°   Visibility: 10mi
Dew Point: 41°   Wind: 6mph
Humidity: 67%   Direction: 20°NNE
Pressure: 30.03"   Gusts: NA
Location:  43.74°N, 90.27°W
Report Text: KVOK 210058Z 02005KT 10SM BKN048 11/05 A3003 RMK AO2A SLP177
Loading
Personal Weather Stations






























Interactive Weather Map New forecast layout! Learn more

10-Day Weather Forecast

Advertisements
Track Severe Weather on mobile